KVLD/VLD METAR and TAF weather

Enter ICAO airport designator
Station Type Date Time Source
KVLD METAR 2019/04/19 10:12 UTC NOAA

KVLD 191012Z AUTO 18012G19KT 10SM SCT010 BKN014 BKN023 22/20 A2969 RMK AO2 T02170200


Station Type Date Time Source
KVLD Decoded METAR 2019/04/19 10:12 UTC NOAA

VALDOSTA REGIONAL AIRPORT, GA, United States (KVLD) 30-47N 083-16W
Apr 19, 2019 - 06:12 AM EDT / 2019.04.19 1012 UTC
Wind: from the S (180 degrees) at 14 MPH (12 KT) gusting to 22 MPH (19 KT):0
Visibility: 10 mile(s):0
Sky conditions: mostly cloudy
Temperature: 71.1 F (21.7 C)
Dew Point: 68.0 F (20.0 C)
Relative Humidity: 90%
Pressure (altimeter): 29.69 in. Hg (1005 hPa)
ob: KVLD 191012Z AUTO 18012G19KT 10SM SCT010 BKN014 BKN023 22/20 A2969 RMK AO2 T02170200
cycle: 10

Station Type Date Time Source
KVLD TAF 2019/04/19 06:28 UTC NOAA

TAF KVLD 190525Z 1906/2006 18010KT P6SM BKN050 BKN250
FM191000 18012KT P6SM OVC030
FM191300 18020G30KT 3SM TSRA OVC007CB
FM191600 21014KT P6SM BKN025
FM191800 24014G20KT P6SM BKN030
FM200000 26008KT P6SM BKN250

Example: see airport list